Decoded Metar for KCTB (CUTBANK in MT, USA) (IATA:CTB) | Meteo·Mobile Aviation Weather
aviador You're here:

KCTB Decoded Metar

CUTBANK in MT, USA
Report Time2018-11-18 19:56:00
UTC Time2018-11-18 20:17:50
Flight Rules vfr VFR
Wind260° at 18 Gusting to 27 kt
W.Decomp.*RWY 23: 17.5 kt HW 4.0 kt RCW
RWY 31: 7.0 kt HW 16.6 kt LCW
W.Rank260° ranks 2
Current wind is above 260° avg. (16.4)
Visibility9999 m
Phenomena:N/A
Clouds:N/A
Expected CloudBase > 3,600 ft AGL from Temp-Dew spread
CeilingNone
Temp04°C (ISA -3)
Dew Point-5°C (52% RH)
AAT-5.1°C
QNH1014 hPa
Density Alt3,488 ft
Elevation3,855 ft
Report Wrong Elevation
Raw Report
KCTB 181956Z AUTO 26018G27KT 10SM CLR 04/M05 A2995 RMK AO2 PK WND
26033/1859 SLP164 T00441050=

Extra information for KCTB:More info

Metar Taf Metar & Taf Last 4 Metars F.Rules Stats Wind Profile Meteogram Temp Stats Airport Information Weather charts Add Link Nearby VenuesMetar ALERT Operation Metar Decoded Social comments

AIRNAV info for KCTB